Aviation Digital Data Service (ADDS)

Output produced by METARs form (1313 UTC 18 April 2015)
found at http://aviationweather.gov/adds/metars/
 
KCLT 181132Z 1812/1912 34003KT 5SM BR OVC090 
     FM181600 05004KT P6SM BKN060 
     FM190500 10005KT P6SM OVC025 
     FM190700 10006KT 5SM BR OVC008 
     FM191000 12010KT 5SM -SHRA BR OVC008